Terminal Aerodrome Forecast
Issued by NWS

Home | Current Version | Previous Version | Text Only | Print | Product List | Glossary On
Versions: 1 2 3 4 5 6 7 8 9 10 11 12 13 14 15 16 17 18 19 20 21 22 23 24 25 26 27 28 29 30 31
000
FTUS43 KDVN 231300 AAA
TAFCID
TAF AMD
KCID 231311Z 2313/2412 26005KT P6SM SCT008 BKN025 OVC070
      TEMPO 2313/2315 1SM +TSRA OVC010CB
     FM231600 15007KT P6SM BKN050
     FM240700 12005KT 1SM BR SCT100=

USA.gov is the U.S. government's official web portal to all federal, state and local government web resources and services.